Time;durP1;ratioP1;P1;durP2;ratioP2;P2;SDS_P1;SDS_P2;PMS_P1;PMS_P2;Temp;Humidity;BMP_temperature;BMP_pressure;BME280_temperature;BME280_humidity;BME280_pressure;Samples;Min_cycle;Max_cycle;Signal;HPM_P1;HPM_P2
2022/07/18 00:00:30;;;;;;;3.95;2.95;;;;;;;12.34;87.44;93901.59;2115316;27;20032;-74
2022/07/18 00:01:32;;;;;;;3.70;3.20;;;;;;;12.28;88.29;93903.97;2114479;27;20039;-74
2022/07/18 00:02:33;;;;;;;3.05;2.83;;;;;;;12.25;89.11;93902.13;2115424;27;20514;-74
2022/07/18 00:03:34;;;;;;;3.47;3.17;;;;;;;12.15;89.03;93908.38;2113515;28;20031;-74
2022/07/18 00:04:35;;;;;;;3.40;3.10;;;;;;;12.20;88.31;93899.13;2114828;27;20373;-74
2022/07/18 00:05:36;;;;;;;3.50;2.75;;;;;;;12.14;88.46;93903.44;2113818;27;20377;-74
2022/07/18 00:06:37;;;;;;;3.30;3.00;;;;;;;12.10;88.75;93908.84;2115567;27;20036;-74
2022/07/18 00:07:38;;;;;;;3.38;2.85;;;;;;;12.15;88.32;93903.00;2114155;27;20514;-74
2022/07/18 00:08:39;;;;;;;3.35;3.03;;;;;;;12.14;88.91;93903.44;2115309;27;20111;-74
2022/07/18 00:09:40;;;;;;;3.42;2.85;;;;;;;12.16;88.66;93893.06;2114061;27;20043;-74
2022/07/18 00:10:42;;;;;;;3.55;3.00;;;;;;;12.25;87.99;93898.69;2115239;27;20035;-74
2022/07/18 00:11:43;;;;;;;3.50;3.17;;;;;;;12.18;88.80;93907.56;2115262;27;20015;-74
2022/07/18 00:12:44;;;;;;;3.33;3.03;;;;;;;12.17;88.59;93899.94;2115134;27;20027;-74
2022/07/18 00:13:46;;;;;;;3.95;2.78;;;;;;;12.14;89.11;93901.50;2114252;27;20027;-74
2022/07/18 00:14:47;;;;;;;4.57;2.90;;;;;;;12.17;88.38;93899.94;2113631;27;20528;-74
2022/07/18 00:15:48;;;;;;;3.10;2.88;;;;;;;12.14;88.44;93900.75;2114234;27;20028;-74
2022/07/18 00:16:49;;;;;;;3.75;3.13;;;;;;;12.08;89.26;93911.19;2114625;27;20080;-73
2022/07/18 00:17:50;;;;;;;3.17;2.90;;;;;;;12.08;89.77;93900.47;2113225;27;20171;-74
2022/07/18 00:18:51;;;;;;;3.63;2.88;;;;;;;12.10;88.93;93903.47;2114890;27;20039;-74
2022/07/18 00:19:52;;;;;;;3.50;3.20;;;;;;;12.10;88.67;93906.91;2114237;27;20457;-74
2022/07/18 00:20:53;;;;;;;5.15;3.38;;;;;;;12.02;89.68;93908.19;2115423;27;20028;-74
2022/07/18 00:21:54;;;;;;;4.45;3.17;;;;;;;12.03;89.75;93908.97;2115127;27;20062;-74
2022/07/18 00:22:55;;;;;;;3.42;3.08;;;;;;;12.05;89.76;93904.69;2113457;27;20027;-74
2022/07/18 00:23:56;;;;;;;5.00;2.83;;;;;;;12.01;90.64;93906.66;2115160;27;20020;-74
2022/07/18 00:24:57;;;;;;;3.33;3.03;;;;;;;11.95;91.34;93907.53;2114343;27;20058;-73
2022/07/18 00:25:59;;;;;;;6.70;3.80;;;;;;;11.95;90.73;93904.88;2114805;27;20019;-74
2022/07/18 00:27:01;;;;;;;3.28;2.97;;;;;;;11.96;91.24;93912.47;2112514;27;20064;-73
2022/07/18 00:28:02;;;;;;;5.15;3.67;;;;;;;11.80;92.99;93909.63;2114524;27;20512;-73
2022/07/18 00:29:03;;;;;;;4.40;3.20;;;;;;;11.90;91.35;93903.41;2113304;27;20513;-74
2022/07/18 00:30:04;;;;;;;3.75;3.35;;;;;;;11.94;92.84;93897.97;2115869;27;20441;-74
2022/07/18 00:31:05;;;;;;;4.22;3.30;;;;;;;11.95;91.48;93908.28;2112123;28;20122;-73
2022/07/18 00:32:08;;;;;;;3.90;3.50;;;;;;;11.93;92.69;93913.28;2105941;28;20015;-73
2022/07/18 00:33:09;;;;;;;4.47;2.90;;;;;;;11.78;91.82;93902.00;2106456;28;20024;-74
2022/07/18 00:34:10;;;;;;;5.93;3.10;;;;;;;11.79;91.82;93900.06;2115673;27;20035;-74
2022/07/18 00:35:11;;;;;;;6.07;3.20;;;;;;;11.84;91.61;93899.63;2115106;27;20033;-73
2022/07/18 00:36:12;;;;;;;4.35;3.42;;;;;;;11.80;93.66;93913.03;2114536;27;20027;-73
2022/07/18 00:37:13;;;;;;;3.60;3.30;;;;;;;11.76;93.54;93906.97;2116032;27;20031;-74
2022/07/18 00:38:15;;;;;;;3.33;3.00;;;;;;;11.77;91.28;93905.09;2114414;27;20030;-74
2022/07/18 00:39:16;;;;;;;5.35;3.13;;;;;;;11.81;91.56;93905.78;2114988;27;20058;-74
2022/07/18 00:40:18;;;;;;;3.42;3.13;;;;;;;11.83;90.79;93908.84;2115126;27;20365;-74
2022/07/18 00:41:19;;;;;;;3.55;3.00;;;;;;;11.81;91.20;93905.78;2105638;28;20036;-74
2022/07/18 00:42:20;;;;;;;5.18;3.38;;;;;;;11.75;91.66;93908.16;2105890;28;20132;-74
2022/07/18 00:43:21;;;;;;;3.63;2.92;;;;;;;11.69;92.01;93900.97;2114323;27;20871;-74
2022/07/18 00:44:25;;;;;;;3.92;3.17;;;;;;;11.66;92.44;93915.16;2114131;27;20027;-74
2022/07/18 00:45:26;;;;;;;5.90;3.28;;;;;;;11.71;92.20;93906.69;2114725;27;20103;-74
2022/07/18 00:46:28;;;;;;;5.20;3.03;;;;;;;11.64;92.88;93904.88;2115070;27;20031;-74
2022/07/18 00:47:29;;;;;;;3.95;3.30;;;;;;;11.68;92.44;93912.84;2114712;27;20031;-74
2022/07/18 00:48:30;;;;;;;8.15;3.47;;;;;;;11.64;92.23;93910.22;2112088;27;20048;-74
2022/07/18 00:49:31;;;;;;;5.18;3.20;;;;;;;11.67;92.66;93908.63;2115016;27;20039;-74
2022/07/18 00:50:32;;;;;;;3.25;3.05;;;;;;;11.62;93.41;93914.44;2114262;27;20031;-73
2022/07/18 00:51:36;;;;;;;4.00;3.50;;;;;;;11.58;94.29;93911.81;2114901;27;20373;-73
2022/07/18 00:52:37;;;;;;;8.15;3.30;;;;;;;11.60;93.53;93907.59;2114903;27;20043;-74
2022/07/18 00:53:38;;;;;;;3.65;3.10;;;;;;;11.55;94.05;93907.28;2113333;27;20031;-73
2022/07/18 00:54:40;;;;;;;4.13;3.72;;;;;;;11.58;93.70;93904.53;2114429;27;20024;-74
2022/07/18 00:55:46;;;;;;;3.70;3.13;;;;;;;11.56;93.51;93908.78;2114330;27;20791;-74
2022/07/18 00:56:49;;;;;;;5.80;3.53;;;;;;;11.57;93.28;93908.38;2115125;27;20516;-74
2022/07/18 00:57:51;;;;;;;3.53;3.22;;;;;;;11.53;93.95;93907.66;2113234;28;20034;-74
2022/07/18 00:58:52;;;;;;;3.75;3.45;;;;;;;11.42;94.30;93901.69;2114824;27;20487;-74
2022/07/18 01:02:33;;;;;;;5.60;3.10;;;;;;;11.54;95.25;93897.72;2111390;28;20401;-74
2022/07/18 01:03:34;;;;;;;5.30;3.10;;;;;;;11.57;95.13;93902.28;2105399;28;20028;-74
2022/07/18 01:04:35;;;;;;;5.00;3.22;;;;;;;11.55;95.37;93900.00;2114245;27;20026;-74
2022/07/18 01:05:36;;;;;;;3.72;3.33;;;;;;;11.51;96.97;93901.22;2113844;27;20055;-74
2022/07/18 01:06:37;;;;;;;4.43;3.50;;;;;;;11.50;95.61;93902.34;2113724;27;20063;-74
2022/07/18 01:07:38;;;;;;;5.13;3.15;;;;;;;11.50;95.08;93905.81;2114938;27;20109;-75
2022/07/18 01:08:42;;;;;;;3.75;3.45;;;;;;;11.46;94.64;93913.13;2115093;27;20039;-74
2022/07/18 01:09:43;;;;;;;3.50;3.20;;;;;;;11.37;96.75;93907.50;2113948;28;20103;-74
2022/07/18 01:10:44;;;;;;;3.35;3.03;;;;;;;11.39;96.09;93905.16;2115077;28;20062;-74
2022/07/18 01:11:47;;;;;;;3.85;3.30;;;;;;;11.35;95.78;93909.81;2113509;27;20046;-74
2022/07/18 01:12:48;;;;;;;5.03;3.05;;;;;;;11.38;95.12;93906.34;2115060;27;20031;-74
2022/07/18 01:13:50;;;;;;;3.45;3.15;;;;;;;11.40;96.31;93905.94;2113729;27;20030;-74
2022/07/18 01:14:51;;;;;;;3.45;3.15;;;;;;;11.46;95.59;93896.31;2113017;28;20047;-72
2022/07/18 01:15:52;;;;;;;4.95;3.70;;;;;;;11.43;95.74;93905.88;2113265;28;20453;-73
2022/07/18 01:16:53;;;;;;;4.57;3.53;;;;;;;11.39;97.02;93896.38;2112781;28;20030;-73
2022/07/18 01:17:54;;;;;;;3.60;3.30;;;;;;;11.41;95.15;93900.16;2112971;28;20023;-75
2022/07/18 01:18:55;;;;;;;3.47;3.17;;;;;;;11.45;95.56;93900.13;2111405;28;20195;-73
2022/07/18 01:19:56;;;;;;;8.55;3.70;;;;;;;11.39;95.37;93896.38;2113794;28;20115;-73
2022/07/18 01:20:57;;;;;;;5.88;3.45;;;;;;;11.23;95.97;93892.34;2113508;28;20481;-73
2022/07/18 01:21:58;;;;;;;6.22;3.28;;;;;;;11.21;97.06;93893.91;2114008;27;20027;-73
2022/07/18 01:22:59;;;;;;;5.00;3.28;;;;;;;11.16;96.80;93899.72;2113733;28;20027;-73
2022/07/18 01:24:00;;;;;;;3.83;3.40;;;;;;;11.14;97.33;93891.31;2112265;28;20047;-73
2022/07/18 01:25:01;;;;;;;4.00;3.58;;;;;;;11.17;98.19;93893.19;2113496;28;20031;-73
2022/07/18 01:26:03;;;;;;;3.70;3.40;;;;;;;11.19;96.38;93902.31;2114003;27;20353;-73
2022/07/18 01:27:05;;;;;;;4.80;3.42;;;;;;;11.12;97.08;93897.06;2113960;28;20019;-74
2022/07/18 01:28:05;;;;;;;4.47;3.50;;;;;;;11.13;96.82;93900.50;2113871;27;20095;-73
2022/07/18 01:29:06;;;;;;;3.88;3.47;;;;;;;11.00;97.39;93902.94;2113734;28;20023;-73
2022/07/18 01:30:09;;;;;;;5.45;3.42;;;;;;;11.06;98.17;93901.31;2113838;27;20404;-73
2022/07/18 01:31:10;;;;;;;4.07;3.38;;;;;;;11.09;97.88;93898.63;2113980;28;20047;-74
2022/07/18 01:32:12;;;;;;;4.10;3.50;;;;;;;11.06;97.52;93901.31;2113078;28;20083;-74
2022/07/18 01:33:13;;;;;;;5.45;3.60;;;;;;;11.08;97.39;93899.03;2112558;28;20032;-73
2022/07/18 01:34:14;;;;;;;5.05;3.30;;;;;;;11.02;97.15;93900.63;2112981;28;20024;-74
2022/07/18 01:35:15;;;;;;;4.40;3.42;;;;;;;11.04;97.41;93896.38;2112989;28;20110;-73
2022/07/18 01:36:16;;;;;;;3.40;3.10;;;;;;;10.96;97.52;93904.88;2112421;28;20069;-73
2022/07/18 01:37:17;;;;;;;3.78;3.40;;;;;;;10.98;97.32;93906.03;2112507;28;20020;-73
2022/07/18 01:38:19;;;;;;;6.03;3.40;;;;;;;10.99;96.86;93906.78;2111825;28;20023;-73
2022/07/18 01:39:20;;;;;;;3.53;3.22;;;;;;;11.01;97.64;93889.16;2100262;28;20107;-73
2022/07/18 01:40:21;;;;;;;4.00;3.60;;;;;;;11.07;97.52;93900.19;2103478;28;20046;-73
2022/07/18 01:41:22;;;;;;;5.38;3.95;;;;;;;11.01;97.32;93897.19;2104518;28;20442;-73
2022/07/18 01:42:23;;;;;;;3.92;3.20;;;;;;;10.99;98.82;93898.75;2112721;28;20087;-72
2022/07/18 01:43:25;;;;;;;4.45;3.25;;;;;;;10.97;98.55;93893.78;2113463;28;20031;-73
2022/07/18 01:44:27;;;;;;;4.28;3.63;;;;;;;10.99;97.85;93901.41;2112618;28;20028;-73
2022/07/18 01:45:28;;;;;;;3.33;3.03;;;;;;;10.90;97.95;93898.47;2113259;28;20400;-72
2022/07/18 01:46:29;;;;;;;3.95;3.50;;;;;;;10.87;99.25;93893.91;2113531;28;20050;-73
2022/07/18 01:47:30;;;;;;;3.78;3.40;;;;;;;10.89;98.82;93895.03;2112593;28;20381;-73
2022/07/18 01:48:31;;;;;;;4.85;3.65;;;;;;;10.91;97.81;93900.72;2113161;28;20023;-73
2022/07/18 01:49:33;;;;;;;5.63;3.65;;;;;;;10.91;97.51;93890.03;2112611;28;20039;-73
2022/07/18 01:50:33;;;;;;;3.90;3.50;;;;;;;10.98;96.85;93894.56;2112735;28;20019;-73
2022/07/18 01:51:34;;;;;;;6.32;3.67;;;;;;;11.02;97.33;93898.72;2113477;28;20106;-73
2022/07/18 01:52:36;;;;;;;5.00;3.50;;;;;;;10.96;98.10;93904.88;2112670;28;20032;-73
2022/07/18 01:53:39;;;;;;;5.15;3.72;;;;;;;10.87;98.03;93902.69;2113305;28;20031;-73
2022/07/18 01:54:40;;;;;;;4.00;3.60;;;;;;;10.88;98.51;93903.44;2112543;28;20028;-73
2022/07/18 01:55:41;;;;;;;3.90;3.60;;;;;;;10.89;97.83;93895.03;2112657;28;20122;-73
2022/07/18 01:56:42;;;;;;;5.45;3.67;;;;;;;10.85;97.78;93896.97;2113772;27;20046;-73
2022/07/18 01:57:43;;;;;;;4.38;3.97;;;;;;;10.79;98.34;93898.56;2113430;28;20369;-73
2022/07/18 01:58:44;;;;;;;3.55;3.25;;;;;;;10.79;98.89;93910.00;2113005;28;20023;-73
2022/07/18 01:59:45;;;;;;;7.18;3.78;;;;;;;10.83;98.58;93902.72;2112495;28;20102;-73
2022/07/18 02:00:46;;;;;;;3.70;3.40;;;;;;;10.83;98.33;93901.97;2112588;28;20366;-73
2022/07/18 02:01:47;;;;;;;5.45;3.80;;;;;;;10.81;98.30;93906.97;2112389;28;20110;-73
2022/07/18 02:02:48;;;;;;;4.97;3.55;;;;;;;10.72;98.92;93904.75;2112781;28;20540;-73
2022/07/18 02:03:48;;;;;;;4.00;3.60;;;;;;;10.69;100.00;93908.19;2113204;28;20032;-73
2022/07/18 02:04:59;;;;;;;5.47;4.07;;;;;;;10.62;100.00;93913.59;2112762;28;20461;-73
2022/07/18 02:06:00;;;;;;;4.80;3.80;;;;;;;10.62;100.00;93907.50;2112968;28;20020;-73
2022/07/18 02:07:01;;;;;;;4.18;3.72;;;;;;;10.64;100.00;93903.28;2111314;28;20152;-73
2022/07/18 02:08:02;;;;;;;4.93;3.75;;;;;;;10.64;100.00;93905.22;2103881;28;20055;-73
2022/07/18 02:09:06;;;;;;;4.15;3.60;;;;;;;10.52;100.00;93906.44;2112062;28;20023;-73
2022/07/18 02:10:09;;;;;;;4.65;3.72;;;;;;;10.60;100.00;93902.56;2112545;28;20028;-73
2022/07/18 02:11:10;;;;;;;5.75;3.53;;;;;;;10.65;100.00;93898.69;2113312;28;20063;-73
2022/07/18 02:12:11;;;;;;;5.03;3.72;;;;;;;10.57;100.00;93911.38;2111772;28;20031;-73
2022/07/18 02:14:23;;;;;;;;;;;;;;;10.68;99.59;93905.94;2142997;27;20542;-72
2022/07/18 02:15:24;;;;;;;5.22;3.90;;;;;;;10.67;100.00;93904.41;2136196;27;19927;-74
2022/07/18 02:16:25;;;;;;;5.10;3.72;;;;;;;10.67;100.00;93907.06;2137801;27;20030;-74
2022/07/18 02:17:26;;;;;;;4.72;3.95;;;;;;;10.64;99.46;93910.56;2125714;27;20034;-74
2022/07/18 02:18:27;;;;;;;6.30;4.07;;;;;;;10.49;100.00;93910.69;2118405;27;20034;-75
2022/07/18 02:19:28;;;;;;;4.57;4.07;;;;;;;10.54;100.00;93904.16;2126033;27;20023;-74
2022/07/18 02:20:29;;;;;;;4.30;3.90;;;;;;;10.50;100.00;93906.84;2136444;27;20026;-75
2022/07/18 02:21:30;;;;;;;4.55;4.10;;;;;;;10.45;100.00;93904.63;2136094;27;20126;-75
2022/07/18 02:22:31;;;;;;;6.28;4.30;;;;;;;10.52;100.00;93906.44;2133447;27;20031;-75
2022/07/18 02:23:32;;;;;;;3.90;3.50;;;;;;;10.50;100.00;93906.84;2136604;27;20375;-74
2022/07/18 02:24:33;;;;;;;3.85;3.55;;;;;;;10.41;100.00;93911.91;2136206;27;20028;-75
2022/07/18 02:25:35;;;;;;;4.60;3.95;;;;;;;10.47;100.00;93902.28;2136996;27;20023;-75
2022/07/18 02:26:35;;;;;;;5.18;3.85;;;;;;;10.50;100.00;93908.78;2123522;27;20042;-74
2022/07/18 02:27:37;;;;;;;4.55;3.88;;;;;;;10.33;100.00;93908.53;2128629;27;20105;-75
2022/07/18 02:28:38;;;;;;;5.55;3.97;;;;;;;10.41;100.00;93906.56;2135518;27;20035;-74
2022/07/18 02:29:40;;;;;;;5.40;3.85;;;;;;;10.38;100.00;93903.91;2135864;27;20113;-74
2022/07/18 02:30:41;;;;;;;4.82;3.67;;;;;;;10.40;100.00;93909.59;2136200;27;20034;-74
2022/07/18 02:31:42;;;;;;;4.43;4.03;;;;;;;10.39;100.00;93900.81;2135252;27;20379;-74
2022/07/18 02:32:43;;;;;;;6.05;3.92;;;;;;;10.32;100.00;93904.34;2137627;27;20085;-75
2022/07/18 02:33:44;;;;;;;4.50;4.05;;;;;;;10.31;100.00;93900.13;2136554;27;20435;-75
2022/07/18 02:34:45;;;;;;;4.32;3.90;;;;;;;10.41;100.00;93900.44;2136637;27;20475;-75
2022/07/18 02:35:46;;;;;;;4.38;3.92;;;;;;;10.48;100.00;93901.13;2136240;27;20467;-74
2022/07/18 02:36:49;;;;;;;5.20;4.10;;;;;;;10.46;100.00;93900.03;2136587;27;20022;-74
2022/07/18 02:37:50;;;;;;;6.35;4.22;;;;;;;10.40;100.00;93899.66;2137571;27;20083;-74
2022/07/18 02:38:51;;;;;;;4.95;4.35;;;;;;;10.38;100.00;93898.56;2124871;27;20573;-74
2022/07/18 02:39:52;;;;;;;6.03;4.28;;;;;;;10.29;100.00;93905.13;2124883;27;20118;-74
2022/07/18 02:40:53;;;;;;;5.32;4.20;;;;;;;10.21;100.00;93897.50;2137231;27;20029;-74
2022/07/18 02:41:54;;;;;;;5.00;4.53;;;;;;;10.25;100.00;93893.69;2134865;27;20054;-74
2022/07/18 02:42:55;;;;;;;6.35;3.92;;;;;;;10.26;100.00;93899.78;2137624;27;20371;-74
2022/07/18 02:43:56;;;;;;;5.30;4.80;;;;;;;10.18;100.00;93895.63;2132168;27;20034;-75
2022/07/18 02:44:57;;;;;;;5.65;4.05;;;;;;;10.25;100.00;93899.03;2137689;27;20075;-75
2022/07/18 02:45:58;;;;;;;4.53;3.92;;;;;;;10.27;100.00;93895.97;2133056;27;20018;-75
2022/07/18 02:46:59;;;;;;;4.50;3.90;;;;;;;10.29;100.00;93893.66;2137949;27;20069;-75
2022/07/18 02:48:00;;;;;;;4.95;4.20;;;;;;;10.39;100.00;93892.81;2133562;27;20051;-75
2022/07/18 02:49:01;;;;;;;5.50;4.35;;;;;;;10.32;100.00;93890.97;2136405;27;20049;-75
2022/07/18 02:50:03;;;;;;;6.30;3.92;;;;;;;10.21;100.00;93887.59;2135973;27;20023;-75
2022/07/18 02:51:04;;;;;;;5.90;3.95;;;;;;;10.11;100.00;93898.38;2136097;27;20019;-75
2022/07/18 02:52:08;;;;;;;6.15;4.07;;;;;;;10.11;100.00;93893.78;2128184;27;20031;-74
2022/07/18 02:53:09;;;;;;;5.00;4.38;;;;;;;10.17;100.00;93894.09;2126641;27;20019;-74
2022/07/18 02:54:10;;;;;;;4.50;4.10;;;;;;;10.18;100.00;93898.28;2127983;27;20502;-74
2022/07/18 02:55:12;;;;;;;5.07;4.10;;;;;;;10.23;100.00;93895.97;2123520;27;20039;-74
2022/07/18 02:56:13;;;;;;;4.28;3.88;;;;;;;10.24;100.00;93888.72;2127488;27;20023;-74
2022/07/18 02:57:14;;;;;;;4.65;4.10;;;;;;;10.27;100.00;93886.06;2127941;27;20092;-74
2022/07/18 02:58:16;;;;;;;5.43;3.90;;;;;;;10.17;100.00;93894.88;2135852;27;20047;-74
2022/07/18 02:59:17;;;;;;;8.00;4.53;;;;;;;10.18;100.00;93893.72;2137320;27;20026;-74
2022/07/18 03:00:21;;;;;;;6.38;4.47;;;;;;;10.17;100.00;93891.44;2133327;27;20837;-74
2022/07/18 03:01:22;;;;;;;5.10;4.60;;;;;;;10.08;100.00;93889.97;2135518;27;20033;-74
2022/07/18 03:02:23;;;;;;;4.65;3.78;;;;;;;10.02;100.00;93893.47;2136903;27;20042;-74
2022/07/18 03:03:24;;;;;;;6.47;4.60;;;;;;;10.08;100.00;93897.97;2123349;27;20031;-74
2022/07/18 03:04:25;;;;;;;5.10;4.18;;;;;;;10.05;100.00;93893.44;2128137;27;20470;-74
2022/07/18 03:05:26;;;;;;;5.28;4.20;;;;;;;10.05;100.00;93885.44;2130865;27;20063;-74
2022/07/18 03:06:27;;;;;;;7.57;4.32;;;;;;;10.13;100.00;93896.03;2137346;27;20044;-74
2022/07/18 03:07:28;;;;;;;8.35;4.15;;;;;;;10.11;100.00;93893.78;2135585;27;20384;-74
2022/07/18 03:08:29;;;;;;;8.55;4.65;;;;;;;10.05;100.00;93890.00;2136323;27;20084;-74
2022/07/18 03:09:30;;;;;;;5.00;4.35;;;;;;;10.07;100.00;93891.13;2136675;27;20470;-74
2022/07/18 03:10:31;;;;;;;6.72;4.70;;;;;;;10.09;100.00;93890.72;2134818;27;20034;-74
2022/07/18 03:11:32;;;;;;;5.05;4.63;;;;;;;10.08;100.00;93897.97;2137326;27;20031;-75
2022/07/18 03:12:33;;;;;;;7.10;5.22;;;;;;;9.89;100.00;93890.50;2135684;27;20034;-75
2022/07/18 03:13:34;;;;;;;8.27;5.32;;;;;;;9.97;100.00;93901.91;2135155;27;20019;-74
2022/07/18 03:14:35;;;;;;;7.25;4.93;;;;;;;9.98;100.00;93898.81;2137187;27;20026;-74
2022/07/18 03:15:38;;;;;;;7.15;5.07;;;;;;;9.86;100.00;93896.63;2131356;27;20113;-74
2022/07/18 03:16:39;;;;;;;6.15;4.80;;;;;;;9.89;100.00;93897.75;2137277;27;20086;-74
2022/07/18 03:17:41;;;;;;;9.45;4.43;;;;;;;9.77;100.00;93898.97;2136121;27;20030;-74
2022/07/18 03:18:42;;;;;;;5.15;4.40;;;;;;;9.80;100.00;93896.28;2132713;27;20061;-75
2022/07/18 03:19:43;;;;;;;6.43;5.03;;;;;;;9.76;100.00;93900.13;2127582;27;20495;-74
2022/07/18 03:20:44;;;;;;;7.45;4.45;;;;;;;9.84;100.00;93894.34;2124990;27;20027;-74
2022/07/18 03:21:45;;;;;;;8.13;4.60;;;;;;;9.85;100.00;93887.09;2137178;27;20030;-74
2022/07/18 03:22:46;;;;;;;5.80;4.65;;;;;;;9.85;100.00;93897.78;2132290;27;20432;-75
2022/07/18 03:23:47;;;;;;;5.55;4.40;;;;;;;9.90;100.00;93894.69;2135363;27;20033;-75
2022/07/18 03:24:48;;;;;;;4.78;4.28;;;;;;;9.95;100.00;93893.50;2131207;27;20025;-75
2022/07/18 03:25:49;;;;;;;5.75;4.75;;;;;;;9.88;100.00;93891.66;2129477;27;20030;-74
2022/07/18 03:26:50;;;;;;;5.35;4.40;;;;;;;9.87;100.00;93892.03;2122209;27;20100;-75
2022/07/18 03:27:51;;;;;;;5.22;4.72;;;;;;;9.81;100.00;93894.34;2120659;27;20445;-75
2022/07/18 03:28:52;;;;;;;6.72;4.13;;;;;;;9.83;100.00;93889.38;2130702;27;20023;-74
2022/07/18 03:29:53;;;;;;;6.75;4.07;;;;;;;9.87;100.00;93895.44;2129756;27;20034;-74
2022/07/18 03:30:54;;;;;;;5.10;4.60;;;;;;;9.64;100.00;93897.88;2128385;27;20046;-74
2022/07/18 03:31:55;;;;;;;6.57;4.50;;;;;;;9.73;100.00;93895.53;2129595;27;20850;-74
2022/07/18 03:32:56;;;;;;;9.23;5.03;;;;;;;9.76;100.00;93900.13;2127271;27;20155;-74
2022/07/18 03:33:57;;;;;;;5.78;4.50;;;;;;;9.70;100.00;93897.09;2129626;27;20075;-74
2022/07/18 03:34:58;;;;;;;5.75;4.20;;;;;;;9.79;100.00;93894.00;2127979;27;20023;-75
2022/07/18 03:35:59;;;;;;;7.40;4.75;;;;;;;9.71;100.00;93897.88;2129715;27;20049;-75
2022/07/18 03:37:00;;;;;;;6.15;4.90;;;;;;;9.76;100.00;93892.09;2129731;27;20023;-75
2022/07/18 03:38:01;;;;;;;5.13;4.63;;;;;;;9.77;100.00;93894.38;2131358;27;20030;-74
2022/07/18 03:39:03;;;;;;;7.13;5.03;;;;;;;9.75;100.00;93894.03;2125876;27;20035;-75
2022/07/18 03:40:05;;;;;;;5.80;4.75;;;;;;;9.77;100.00;93891.72;2129895;27;20027;-74
2022/07/18 03:41:06;;;;;;;5.15;4.65;;;;;;;9.78;100.00;93890.56;2129754;27;20029;-74
2022/07/18 03:42:07;;;;;;;7.93;4.45;;;;;;;9.79;100.00;93886.75;2129668;27;20064;-74
2022/07/18 03:43:08;;;;;;;4.78;4.28;;;;;;;9.70;100.00;93890.97;2131201;27;20023;-74
2022/07/18 03:44:09;;;;;;;6.85;4.07;;;;;;;9.69;100.00;93897.47;2127779;27;20048;-74
2022/07/18 03:45:10;;;;;;;8.73;5.22;;;;;;;9.61;100.00;93896.75;2131746;27;20064;-74
2022/07/18 03:46:11;;;;;;;10.82;4.57;;;;;;;9.53;100.00;93898.72;2130634;27;20035;-74
2022/07/18 03:47:12;;;;;;;5.22;4.47;;;;;;;9.56;100.00;93897.16;2130898;27;20069;-74
2022/07/18 03:48:13;;;;;;;6.85;5.35;;;;;;;9.56;100.00;93899.84;2128057;27;20045;-74
2022/07/18 03:49:14;;;;;;;5.40;4.82;;;;;;;9.59;100.00;93902.50;2131835;27;20027;-74
2022/07/18 03:50:15;;;;;;;5.03;4.47;;;;;;;9.56;100.00;93897.16;2126997;27;20044;-74
2022/07/18 03:51:16;;;;;;;5.68;4.72;;;;;;;9.58;100.00;93895.63;2120756;27;20034;-74
2022/07/18 03:52:17;;;;;;;5.07;4.65;;;;;;;9.56;100.00;93895.25;2117933;27;20029;-75
2022/07/18 03:53:19;;;;;;;6.63;4.85;;;;;;;9.58;100.00;93892.97;2129206;27;20023;-74
2022/07/18 03:54:20;;;;;;;5.13;4.15;;;;;;;9.53;100.00;93893.38;2129574;27;20076;-74
2022/07/18 03:55:21;;;;;;;7.32;4.65;;;;;;;9.55;100.00;93895.66;2129549;27;20780;-74
2022/07/18 03:56:22;;;;;;;9.10;4.30;;;;;;;9.56;100.00;93900.59;2120124;27;20110;-73
2022/07/18 03:57:23;;;;;;;5.90;4.80;;;;;;;9.58;100.00;93890.31;2117697;27;20020;-74
2022/07/18 03:58:24;;;;;;;4.93;4.15;;;;;;;9.59;100.00;93897.16;2121863;27;20023;-74
2022/07/18 03:59:26;;;;;;;6.05;4.63;;;;;;;9.61;100.00;93899.41;2120952;27;20787;-74
2022/07/18 04:00:27;;;;;;;4.95;4.40;;;;;;;9.63;100.00;93902.47;2128131;27;20668;-74
2022/07/18 04:01:27;;;;;;;6.90;4.82;;;;;;;9.64;100.00;93901.31;2129764;27;20027;-74
2022/07/18 04:02:28;;;;;;;6.32;4.70;;;;;;;9.70;100.00;93901.66;2118977;27;20499;-74
2022/07/18 04:03:29;;;;;;;6.25;4.72;;;;;;;9.63;100.00;93894.47;2121896;27;20380;-74
2022/07/18 04:04:30;;;;;;;5.95;4.50;;;;;;;9.62;100.00;93897.53;2126774;27;20122;-74
2022/07/18 04:05:32;;;;;;;7.10;4.28;;;;;;;9.62;100.00;93900.97;2128180;27;20027;-74
2022/07/18 04:06:33;;;;;;;6.60;4.30;;;;;;;9.61;100.00;93901.31;2129911;27;20558;-74
2022/07/18 04:07:34;;;;;;;5.07;4.53;;;;;;;9.65;100.00;93899.41;2129990;27;20026;-75
2022/07/18 04:08:35;;;;;;;5.50;4.65;;;;;;;9.70;100.00;93899.00;2130578;27;20328;-74
2022/07/18 04:09:36;;;;;;;5.60;4.60;;;;;;;9.74;100.00;93892.47;2118693;27;20020;-75
2022/07/18 04:10:39;;;;;;;6.85;4.00;;;;;;;9.73;100.00;93900.88;2120587;27;20027;-75
2022/07/18 04:11:40;;;;;;;5.45;4.25;;;;;;;9.78;100.00;93903.91;2129128;27;20103;-75
2022/07/18 04:12:50;;;;;;;6.63;4.20;;;;;;;9.72;100.00;93900.13;2127929;27;20035;-75
2022/07/18 04:13:52;;;;;;;5.05;4.55;;;;;;;9.76;100.00;93900.88;2130558;27;20061;-73
2022/07/18 04:14:53;;;;;;;5.00;4.50;;;;;;;9.79;100.00;93907.34;2128389;27;20058;-73
2022/07/18 04:15:55;;;;;;;5.63;4.10;;;;;;;9.88;100.00;93901.56;2129100;27;20512;-75
2022/07/18 04:16:56;;;;;;;9.93;5.00;;;;;;;9.87;100.00;93894.69;2126067;27;20103;-74
2022/07/18 04:17:57;;;;;;;5.85;4.30;;;;;;;9.88;100.00;93901.56;2121708;27;20023;-74
2022/07/18 04:18:58;;;;;;;5.85;4.63;;;;;;;9.86;100.00;93901.94;2126652;27;20018;-74
2022/07/18 04:19:59;;;;;;;4.22;3.83;;;;;;;9.83;100.00;93894.72;2122760;27;20058;-74
2022/07/18 04:21:00;;;;;;;5.15;4.50;;;;;;;9.82;100.00;93899.28;2127911;27;20746;-74
2022/07/18 04:22:01;;;;;;;7.72;4.35;;;;;;;9.91;100.00;93892.75;2123711;27;20026;-74
2022/07/18 04:23:05;;;;;;;7.38;4.07;;;;;;;9.91;100.00;93896.19;2117438;27;20462;-74
2022/07/18 04:24:07;;;;;;;6.63;4.55;;;;;;;9.90;100.00;93897.34;2116296;27;20023;-74
2022/07/18 04:25:08;;;;;;;5.43;4.22;;;;;;;9.93;100.00;93899.25;2126997;27;20074;-75
2022/07/18 04:26:10;;;;;;;4.60;4.15;;;;;;;9.92;100.00;93892.38;2123328;27;20014;-74
2022/07/18 04:27:12;;;;;;;5.57;4.70;;;;;;;9.97;100.00;93889.31;2125229;27;20035;-74
2022/07/18 04:28:14;;;;;;;7.68;4.88;;;;;;;9.96;100.00;93893.09;2124558;27;20114;-74
2022/07/18 04:29:15;;;;;;;6.70;4.40;;;;;;;10.01;100.00;93892.72;2124932;27;20031;-75
2022/07/18 04:30:18;;;;;;;7.22;4.30;;;;;;;10.05;100.00;93890.78;2128129;27;20332;-75
2022/07/18 04:31:20;;;;;;;7.97;5.07;;;;;;;10.06;100.00;93888.84;2125215;27;20027;-75
2022/07/18 04:32:25;;;;;;;5.68;4.30;;;;;;;10.06;100.00;93894.19;2118478;27;20027;-74
2022/07/18 04:33:26;;;;;;;7.40;4.50;;;;;;;10.09;100.00;93894.16;2113889;27;20019;-75
2022/07/18 04:34:27;;;;;;;8.95;4.82;;;;;;;10.17;100.00;93897.53;2125027;27;20027;-75
2022/07/18 04:35:28;;;;;;;4.70;4.30;;;;;;;10.21;100.00;93897.50;2126436;27;20034;-74
2022/07/18 04:36:31;;;;;;;8.15;4.55;;;;;;;10.22;100.00;93888.34;2127164;27;20018;-74
2022/07/18 04:37:32;;;;;;;5.78;4.75;;;;;;;10.25;100.00;93892.94;2126224;27;20111;-74
2022/07/18 04:38:36;;;;;;;4.68;3.85;;;;;;;10.29;100.00;93894.41;2118312;27;20038;-74
2022/07/18 04:39:37;;;;;;;5.60;4.25;;;;;;;10.34;100.00;93890.56;2107880;28;20028;-74
2022/07/18 04:40:38;;;;;;;8.25;4.20;;;;;;;10.34;100.00;93896.66;2109796;28;20057;-74
2022/07/18 04:41:39;;;;;;;5.00;4.30;;;;;;;10.38;100.00;93891.31;2118140;27;20088;-79
2022/07/18 04:42:40;;;;;;;4.55;4.13;;;;;;;10.43;100.00;93890.88;2128569;27;20122;-73
2022/07/18 04:43:41;;;;;;;6.93;4.10;;;;;;;10.46;100.00;93887.41;2114272;27;20042;-74
2022/07/18 04:44:43;;;;;;;5.05;4.35;;;;;;;10.45;100.00;93888.56;2119239;27;20055;-75
2022/07/18 04:45:43;;;;;;;5.95;4.43;;;;;;;10.47;100.00;93888.94;2127350;27;20033;-76
2022/07/18 04:46:44;;;;;;;5.35;4.15;;;;;;;10.54;100.00;93890.78;2127235;27;20100;-75
2022/07/18 04:47:45;;;;;;;14.75;4.32;;;;;;;10.53;100.00;93882.00;2128562;27;20026;-74
2022/07/18 04:48:46;;;;;;;4.95;3.97;;;;;;;10.56;100.00;93886.56;2124111;27;20032;-76
2022/07/18 04:49:48;;;;;;;6.43;4.50;;;;;;;10.58;100.00;93884.25;2127348;27;20095;-76
2022/07/18 04:50:50;;;;;;;6.68;4.32;;;;;;;10.64;100.00;93889.16;2113690;27;20092;-76
2022/07/18 04:51:51;;;;;;;7.30;4.32;;;;;;;10.68;100.00;93884.56;2108291;28;20031;-76